Time;durP1;ratioP1;P1;durP2;ratioP2;P2;SDS_P1;SDS_P2;PMS_P1;PMS_P2;Temp;Humidity;BMP_temperature;BMP_pressure;BME280_temperature;BME280_humidity;BME280_pressure;Samples;Min_cycle;Max_cycle;Signal;HPM_P1;HPM_P2
2022/08/20 04:35:53;;;;;;;2.03;1.87;;;17.60;98.00;;;;;;4934088;29;20550;-88
2022/08/20 04:38:22;;;;;;;3.40;2.53;;;17.50;98.00;;;;;;4935130;29;20479;-88
2022/08/20 04:40:59;;;;;;;2.53;1.80;;;17.50;98.00;;;;;;4935336;29;20466;-88
2022/08/20 04:43:28;;;;;;;3.53;2.40;;;17.50;98.00;;;;;;4922345;29;20487;-88
2022/08/20 04:45:57;;;;;;;2.20;2.10;;;17.70;98.00;;;;;;4956061;23;20871;-88
2022/08/20 04:48:26;;;;;;;3.10;2.03;;;17.80;98.00;;;;;;4916009;29;20520;-89
2022/08/20 04:50:54;;;;;;;2.10;1.83;;;17.80;98.00;;;;;;4916172;29;20456;-88
2022/08/20 04:53:26;;;;;;;2.80;2.23;;;17.90;98.00;;;;;;4916221;29;20476;-88
2022/08/20 04:55:55;;;;;;;1.97;1.93;;;17.80;98.00;;;;;;4916047;29;20571;-88
2022/08/20 04:58:29;;;;;;;3.40;2.43;;;17.90;98.00;;;;;;4915952;29;20524;-89
2022/08/20 05:00:57;;;;;;;4.50;2.80;;;17.90;98.00;;;;;;4916002;29;20478;-89
2022/08/20 05:03:26;;;;;;;3.73;2.67;;;17.90;98.00;;;;;;4916064;29;20468;-89
2022/08/20 05:05:53;;;;;;;2.47;2.10;;;17.90;98.00;;;;;;4916093;29;20559;-89
2022/08/20 05:08:24;;;;;;;3.03;1.90;;;17.90;98.00;;;;;;4915981;29;20512;-89
2022/08/20 05:10:52;;;;;;;2.40;1.70;;;17.80;98.00;;;;;;4916072;29;20496;-88
2022/08/20 05:13:19;;;;;;;2.87;2.10;;;17.90;98.00;;;;;;4915785;29;20471;-87
2022/08/20 05:15:47;;;;;;;2.80;2.30;;;17.90;98.00;;;;;;4915936;29;20491;-89
2022/08/20 05:18:18;;;;;;;2.73;2.13;;;17.80;98.00;;;;;;4915846;29;20499;-88
2022/08/20 05:20:46;;;;;;;3.30;2.10;;;17.90;98.00;;;;;;4915819;29;20475;-89
2022/08/20 05:23:15;;;;;;;3.13;2.50;;;17.90;98.00;;;;;;4915731;29;20471;-89
2022/08/20 05:25:46;;;;;;;2.27;2.10;;;18.00;98.00;;;;;;4915612;29;20476;-89
2022/08/20 05:28:18;;;;;;;3.30;2.60;;;18.10;98.00;;;;;;4915880;29;20649;-88
2022/08/20 05:30:51;;;;;;;2.37;2.13;;;18.20;98.00;;;;;;4915730;29;20475;-88
2022/08/20 05:33:20;;;;;;;10.40;3.10;;;18.40;98.00;;;;;;4915794;29;20961;-88
2022/08/20 05:35:52;;;;;;;3.70;2.60;;;18.40;98.00;;;;;;4915603;29;20488;-88
2022/08/20 05:38:22;;;;;;;5.00;2.43;;;18.30;98.00;;;;;;4915473;29;20464;-88
2022/08/20 05:40:52;;;;;;;3.43;2.70;;;18.20;98.00;;;;;;4915906;29;20835;-89
2022/08/20 05:43:19;;;;;;;3.90;2.20;;;18.30;98.00;;;;;;4915636;29;20467;-88
2022/08/20 05:45:51;;;;;;;2.60;2.40;;;18.30;98.00;;;;;;4919008;29;20870;-88
2022/08/20 05:48:21;;;;;;;2.53;2.23;;;18.30;98.00;;;;;;4919113;29;20464;-89
2022/08/20 05:50:50;;;;;;;3.83;2.87;;;18.20;98.00;;;;;;4919132;29;20832;-89
2022/08/20 05:53:17;;;;;;;3.43;2.30;;;18.10;98.00;;;;;;4919461;29;20516;-88
2022/08/20 05:55:45;;;;;;;3.17;2.30;;;18.20;98.00;;;;;;4918957;29;20476;-89
2022/08/20 05:58:19;;;;;;;3.80;2.50;;;18.30;98.00;;;;;;4918603;29;20527;-88
2022/08/20 06:00:47;;;;;;;5.57;3.10;;;18.50;98.00;;;;;;4919069;29;20463;-89
2022/08/20 06:05:58;;;;;;;4.10;2.97;;;18.50;98.00;;;;;;4919046;29;20474;-89
2022/08/20 06:08:25;;;;;;;3.30;2.53;;;18.50;98.00;;;;;;4918898;29;20472;-88
2022/08/20 06:10:53;;;;;;;3.67;2.50;;;18.50;98.00;;;;;;4918579;29;20547;-89
2022/08/20 06:13:21;;;;;;;8.60;3.10;;;18.50;98.00;;;;;;4924109;29;20964;-88
2022/08/20 06:15:49;;;;;;;3.10;2.27;;;18.60;98.00;;;;;;4925066;29;20488;-88
2022/08/20 06:18:16;;;;;;;2.50;2.13;;;18.70;98.00;;;;;;4925257;29;20484;-88
2022/08/20 06:20:44;;;;;;;2.80;2.47;;;18.70;98.00;;;;;;4925336;29;20464;-88
2022/08/20 06:23:12;;;;;;;3.93;2.90;;;18.80;98.00;;;;;;4925079;29;20489;-88
2022/08/20 06:25:39;;;;;;;3.50;2.60;;;18.70;98.00;;;;;;4924902;29;20495;-88
2022/08/20 06:28:06;;;;;;;2.63;2.20;;;18.60;98.00;;;;;;4924498;29;20551;-88
2022/08/20 06:30:36;;;;;;;2.67;2.00;;;18.60;98.00;;;;;;4924246;29;20464;-89
2022/08/20 06:33:03;;;;;;;4.37;2.73;;;18.70;98.00;;;;;;4924602;29;20479;-88
2022/08/20 06:35:31;;;;;;;4.80;2.53;;;18.80;98.00;;;;;;4923826;29;20477;-89
2022/08/20 06:37:59;;;;;;;3.03;2.40;;;18.90;98.00;;;;;;4924438;29;20488;-88
2022/08/20 06:40:29;;;;;;;3.00;2.37;;;19.10;98.00;;;;;;4923369;29;20560;-88
2022/08/20 06:42:57;;;;;;;4.70;3.07;;;19.30;98.00;;;;;;4923145;29;20464;-88
2022/08/20 06:45:30;;;;;;;3.20;2.07;;;19.40;98.00;;;;;;4922998;29;20900;-88
2022/08/20 06:48:01;;;;;;;5.10;2.80;;;19.60;98.00;;;;;;4922595;29;20456;-89
2022/08/20 06:50:31;;;;;;;6.03;2.67;;;19.60;98.00;;;;;;4921787;29;20659;-89
2022/08/20 06:52:58;;;;;;;5.70;3.10;;;19.70;98.00;;;;;;4922426;29;20528;-88
2022/08/20 06:55:26;;;;;;;3.53;2.17;;;19.80;98.00;;;;;;4921238;29;20509;-88
2022/08/20 06:57:58;;;;;;;2.90;2.50;;;19.90;98.00;;;;;;4920918;29;20488;-89
2022/08/20 07:00:26;;;;;;;3.60;2.43;;;19.90;98.00;;;;;;4921517;29;20480;-89
2022/08/20 07:02:53;;;;;;;3.87;2.47;;;19.90;98.00;;;;;;4921447;29;20479;-89
2022/08/20 07:05:22;;;;;;;2.20;1.90;;;20.10;98.00;;;;;;4921142;29;20488;-89
2022/08/20 07:07:49;;;;;;;3.70;2.67;;;20.00;98.00;;;;;;4920706;29;20539;-89
2022/08/20 07:10:20;;;;;;;4.50;2.43;;;20.10;98.00;;;;;;4921076;29;20468;-89
2022/08/20 07:12:49;;;;;;;3.23;2.40;;;20.10;98.00;;;;;;4921131;29;20496;-89
2022/08/20 07:15:16;;;;;;;3.43;2.60;;;20.10;98.00;;;;;;4920858;29;20547;-88
2022/08/20 07:17:52;;;;;;;2.93;2.40;;;20.20;98.00;;;;;;4921164;29;20564;-88
2022/08/20 07:20:21;;;;;;;4.13;2.87;;;20.30;98.00;;;;;;4921071;29;20467;-89
2022/08/20 07:22:48;;;;;;;4.80;2.90;;;20.40;98.00;;;;;;4921072;29;20529;-89
2022/08/20 07:25:18;;;;;;;2.67;2.53;;;20.50;98.00;;;;;;4921479;29;20573;-89
2022/08/20 07:27:46;;;;;;;3.17;2.37;;;20.50;98.00;;;;;;4920643;29;20904;-89
2022/08/20 07:33:15;;;;;;;3.13;2.40;;;20.60;98.00;;;;;;4899322;29;20452;-89
2022/08/20 07:35:47;;;;;;;5.03;3.33;;;20.50;98.00;;;;;;4899422;29;20998;-89
2022/08/20 07:38:18;;;;;;;3.27;2.43;;;20.30;98.00;;;;;;4908795;29;20585;-89
2022/08/20 07:40:48;;;;;;;2.77;2.10;;;20.30;98.00;;;;;;4918449;29;20490;-89
2022/08/20 07:43:15;;;;;;;3.37;2.50;;;20.30;98.00;;;;;;4918100;29;20468;-89
2022/08/20 07:45:43;;;;;;;3.83;2.60;;;20.20;98.00;;;;;;4917811;29;20499;-89
2022/08/20 07:48:12;;;;;;;3.77;2.67;;;20.10;98.00;;;;;;4917101;29;20634;-89
2022/08/20 07:50:40;;;;;;;4.90;2.83;;;20.20;98.00;;;;;;4917876;29;20473;-89
2022/08/20 07:53:10;;;;;;;2.80;2.50;;;20.10;98.00;;;;;;4917911;29;20548;-89
2022/08/20 07:55:38;;;;;;;3.90;2.63;;;20.00;98.00;;;;;;4918065;29;21061;-89
2022/08/20 07:58:25;;;;;;;3.17;2.67;;;20.00;98.00;;;;;;4926522;29;20488;-89
2022/08/20 08:01:20;;;;;;;4.80;2.57;;;20.00;98.00;;;;;;4922077;29;20446;-89
2022/08/20 08:04:03;;;;;;;2.33;2.10;;;20.10;98.00;;;;;;4923638;29;20834;-89
2022/08/20 08:06:33;;;;;;;3.77;2.63;;;20.10;98.00;;;;;;4923667;29;20559;-89
2022/08/20 08:09:27;;;;;;;4.23;2.50;;;20.20;98.00;;;;;;4921989;29;20440;-89
2022/08/20 08:12:01;;;;;;;3.90;2.60;;;20.40;98.00;;;;;;4917626;29;20448;-89
2022/08/20 08:21:06;;;;;;;;;;;;;;;;;;;;;
2022/08/20 08:23:44;;;;;;;4.60;3.00;;;20.50;98.00;;;;;;4917326;29;20449;-89
2022/08/20 08:26:21;;;;;;;3.50;2.10;;;20.70;98.00;;;;;;4917766;29;20506;-89
2022/08/20 08:28:52;;;;;;;2.97;2.40;;;20.70;98.00;;;;;;4916764;29;20483;-89
2022/08/20 08:31:27;;;;;;;4.27;2.67;;;20.80;98.00;;;;;;4898834;29;20491;-89
2022/08/20 08:33:58;;;;;;;2.83;2.20;;;20.90;98.00;;;;;;4898381;29;20474;-89
2022/08/20 08:36:43;;;;;;;3.30;2.30;;;20.80;98.00;;;;;;4898029;29;20489;-89
2022/08/20 08:39:18;;;;;;;5.37;2.90;;;20.80;98.00;;;;;;4898141;29;20457;-89
2022/08/20 08:42:16;;;;;;;5.70;3.00;;;21.00;98.00;;;;;;4898589;29;20966;-89
2022/08/20 08:44:43;;;;;;;3.53;2.37;;;21.20;98.00;;;;;;4883950;29;20471;-89
2022/08/20 08:47:20;;;;;;;2.80;2.30;;;21.30;98.00;;;;;;4897863;29;20490;-89
2022/08/20 08:49:48;;;;;;;4.10;2.93;;;21.30;98.00;;;;;;4897882;29;20465;-90
2022/08/20 08:52:22;;;;;;;3.10;2.50;;;21.50;98.00;;;;;;4898267;29;20888;-89
2022/08/20 08:54:52;;;;;;;5.53;2.80;;;21.60;98.00;;;;;;4897451;29;20461;-89
2022/08/20 08:57:22;;;;;;;5.00;2.87;;;21.80;98.00;;;;;;4897916;29;20568;-89
2022/08/20 08:59:55;;;;;;;2.50;2.00;;;21.90;98.00;;;;;;4897869;29;20954;-90
2022/08/20 09:02:25;;;;;;;8.50;2.73;;;22.10;98.00;;;;;;4897749;29;20515;-89
2022/08/20 09:04:56;;;;;;;3.23;2.30;;;22.20;98.00;;;;;;4897765;29;20465;-89
2022/08/20 09:07:53;;;;;;;3.20;2.30;;;22.40;98.00;;;;;;4898008;29;20815;-89
2022/08/20 09:13:06;;;;;;;3.30;2.57;;;22.70;98.00;;;;;;4894784;29;20978;-89
2022/08/20 09:15:34;;;;;;;3.17;2.13;;;22.70;98.00;;;;;;4897834;29;20489;-89
2022/08/20 09:18:01;;;;;;;3.27;2.23;;;22.80;98.00;;;;;;4896889;29;20856;-89
2022/08/20 09:20:28;;;;;;;3.67;2.63;;;22.80;98.00;;;;;;4900991;29;20465;-90
2022/08/20 09:22:55;;;;;;;4.70;3.07;;;23.00;98.00;;;;;;4901478;29;20475;-89
2022/08/20 09:25:23;;;;;;;5.13;2.73;;;23.00;98.00;;;;;;4901500;29;20504;-90
2022/08/20 09:27:50;;;;;;;3.77;2.50;;;23.00;98.00;;;;;;4901606;29;20825;-89
2022/08/20 09:30:19;;;;;;;3.13;2.33;;;23.10;98.00;;;;;;4901344;29;20476;-90
2022/08/20 09:32:46;;;;;;;4.43;2.77;;;23.20;98.00;;;;;;4900715;29;20468;-90
2022/08/20 09:35:14;;;;;;;3.80;2.63;;;23.30;98.00;;;;;;4901451;29;20484;-90
2022/08/20 09:37:41;;;;;;;3.33;2.30;;;23.40;98.00;;;;;;4901610;29;20480;-89
2022/08/20 09:40:10;;;;;;;4.27;3.07;;;23.50;98.00;;;;;;4901616;29;20870;-89
2022/08/20 09:42:38;;;;;;;4.73;3.00;;;23.50;98.00;;;;;;4901449;29;20838;-90
2022/08/20 09:45:09;;;;;;;3.37;2.50;;;23.40;98.00;;;;;;4901014;29;20476;-90
2022/08/20 09:50:25;;;;;;;2.97;2.37;;;23.20;98.00;;;;;;4899858;29;20559;-89
2022/08/20 09:53:06;;;;;;;4.43;2.87;;;23.20;98.00;;;;;;4901042;29;20467;-89
2022/08/20 09:55:36;;;;;;;2.97;2.37;;;23.20;98.00;;;;;;4901172;29;21046;-90
2022/08/20 09:58:07;;;;;;;3.77;2.53;;;23.20;98.00;;;;;;4901050;29;20901;-89
2022/08/20 10:00:35;;;;;;;6.03;3.00;;;23.30;98.00;;;;;;4901121;29;20827;-89
2022/08/20 10:03:03;;;;;;;4.20;2.87;;;23.60;98.00;;;;;;4901068;29;20978;-89
2022/08/20 10:05:31;;;;;;;5.57;3.33;;;24.00;98.00;;;;;;4901455;29;20499;-89
2022/08/20 10:07:58;;;;;;;3.67;2.67;;;24.40;98.00;;;;;;4901711;29;20461;-89
2022/08/20 10:10:26;;;;;;;4.43;3.17;;;24.80;98.00;;;;;;4900364;29;20551;-89
2022/08/20 10:12:53;;;;;;;4.07;2.80;;;25.00;98.00;;;;;;4900679;29;20827;-89
2022/08/20 10:15:20;;;;;;;3.23;2.47;;;25.10;98.00;;;;;;4900691;29;20481;-89
2022/08/20 10:17:47;;;;;;;3.70;2.63;;;25.10;98.00;;;;;;4900861;29;20488;-90
2022/08/20 10:20:17;;;;;;;5.10;2.67;;;25.20;98.00;;;;;;4901241;29;20461;-90
2022/08/20 10:22:44;;;;;;;3.77;2.40;;;25.30;98.00;;;;;;4900983;29;20847;-92
2022/08/20 10:25:12;;;;;;;4.00;2.67;;;25.30;98.00;;;;;;4900785;29;20487;-89
2022/08/20 10:27:55;;;;;;;3.60;2.70;;;25.00;98.00;;;;;;4900521;29;20469;-92
2022/08/20 10:30:22;;;;;;;4.30;2.80;;;24.60;98.00;;;;;;4899534;29;21034;-89
2022/08/20 10:32:49;;;;;;;5.57;3.10;;;24.10;98.00;;;;;;4900898;29;20458;-89
2022/08/20 10:35:18;;;;;;;3.67;2.87;;;23.80;98.00;;;;;;4900375;29;20485;-90
2022/08/20 10:37:45;;;;;;;4.60;2.83;;;23.20;98.00;;;;;;4900663;29;20485;-90
2022/08/20 10:40:14;;;;;;;2.27;2.03;;;22.50;98.00;;;;;;4900387;29;20473;-90
2022/08/20 10:42:41;;;;;;;2.73;1.90;;;21.90;98.00;;;;;;4901630;29;20981;-90
2022/08/20 10:45:09;;;;;;;2.30;1.80;;;21.50;98.00;;;;;;4899728;29;20472;-89
2022/08/20 12:16:10;;;;;;;3.33;2.47;;;21.90;98.00;;;;;;4883706;29;20488;-88
